sensor_id;sensor_type;location;lat;lon;timestamp;temperature;humidity
47174;DHT22;36730;49.036;9.094;2023-11-21T00:00:49;23.80;58.40
47174;DHT22;36730;49.036;9.094;2023-11-21T00:03:15;23.80;58.40
47174;DHT22;36730;49.036;9.094;2023-11-21T00:05:41;23.80;59.00
47174;DHT22;36730;49.036;9.094;2023-11-21T00:08:09;23.80;58.90
47174;DHT22;36730;49.036;9.094;2023-11-21T00:10:35;23.80;59.00
47174;DHT22;36730;49.036;9.094;2023-11-21T00:13:03;23.80;59.80
47174;DHT22;36730;49.036;9.094;2023-11-21T00:15:28;23.80;58.50
47174;DHT22;36730;49.036;9.094;2023-11-21T00:17:54;23.80;58.80
47174;DHT22;36730;49.036;9.094;2023-11-21T00:20:20;23.80;58.60
47174;DHT22;36730;49.036;9.094;2023-11-21T00:22:45;23.80;58.60
47174;DHT22;36730;49.036;9.094;2023-11-21T00:25:12;23.80;58.80
47174;DHT22;36730;49.036;9.094;2023-11-21T00:27:39;23.80;58.80
47174;DHT22;36730;49.036;9.094;2023-11-21T00:30:05;23.70;59.00
47174;DHT22;36730;49.036;9.094;2023-11-21T00:32:31;23.80;58.40
47174;DHT22;36730;49.036;9.094;2023-11-21T00:34:56;23.70;58.20
47174;DHT22;36730;49.036;9.094;2023-11-21T00:37:22;23.80;58.20
47174;DHT22;36730;49.036;9.094;2023-11-21T00:39:49;23.70;58.40
47174;DHT22;36730;49.036;9.094;2023-11-21T00:42:14;23.70;58.50
47174;DHT22;36730;49.036;9.094;2023-11-21T00:44:40;23.70;59.30
47174;DHT22;36730;49.036;9.094;2023-11-21T00:47:07;23.70;58.60
47174;DHT22;36730;49.036;9.094;2023-11-21T00:49:33;23.70;58.50
47174;DHT22;36730;49.036;9.094;2023-11-21T00:51:58;23.70;58.50
47174;DHT22;36730;49.036;9.094;2023-11-21T00:54:24;23.70;58.40
47174;DHT22;36730;49.036;9.094;2023-11-21T00:56:49;23.70;58.60
47174;DHT22;36730;49.036;9.094;2023-11-21T00:59:15;23.70;58.50
47174;DHT22;36730;49.036;9.094;2023-11-21T01:01:40;23.70;58.50
47174;DHT22;36730;49.036;9.094;2023-11-21T01:04:06;23.70;58.80
47174;DHT22;36730;49.036;9.094;2023-11-21T01:06:34;23.60;58.80
47174;DHT22;36730;49.036;9.094;2023-11-21T01:09:00;23.70;58.40
47174;DHT22;36730;49.036;9.094;2023-11-21T01:11:25;23.60;58.30
47174;DHT22;36730;49.036;9.094;2023-11-21T01:13:51;23.60;58.20
47174;DHT22;36730;49.036;9.094;2023-11-21T01:16:17;23.60;58.30
47174;DHT22;36730;49.036;9.094;2023-11-21T01:18:43;23.60;58.30
47174;DHT22;36730;49.036;9.094;2023-11-21T01:21:08;23.60;58.50
47174;DHT22;36730;49.036;9.094;2023-11-21T01:23:34;23.60;58.60
47174;DHT22;36730;49.036;9.094;2023-11-21T01:26:00;23.60;58.60
47174;DHT22;36730;49.036;9.094;2023-11-21T01:28:25;23.60;58.40
47174;DHT22;36730;49.036;9.094;2023-11-21T01:30:51;23.60;58.40
47174;DHT22;36730;49.036;9.094;2023-11-21T01:33:18;23.60;58.40
47174;DHT22;36730;49.036;9.094;2023-11-21T01:35:43;23.60;58.70
47174;DHT22;36730;49.036;9.094;2023-11-21T01:38:09;23.60;58.40
47174;DHT22;36730;49.036;9.094;2023-11-21T01:40:35;23.60;58.50
47174;DHT22;36730;49.036;9.094;2023-11-21T01:43:01;23.60;58.60
47174;DHT22;36730;49.036;9.094;2023-11-21T01:45:29;23.60;58.20
47174;DHT22;36730;49.036;9.094;2023-11-21T01:47:56;23.60;58.20
47174;DHT22;36730;49.036;9.094;2023-11-21T01:50:22;23.60;58.20
47174;DHT22;36730;49.036;9.094;2023-11-21T01:52:47;23.50;58.30
47174;DHT22;36730;49.036;9.094;2023-11-21T01:55:14;23.60;58.40
47174;DHT22;36730;49.036;9.094;2023-11-21T01:57:41;23.50;58.40
47174;DHT22;36730;49.036;9.094;2023-11-21T02:00:07;23.50;58.40
47174;DHT22;36730;49.036;9.094;2023-11-21T02:02:45;23.60;58.50
47174;DHT22;36730;49.036;9.094;2023-11-21T02:05:11;23.50;58.40
47174;DHT22;36730;49.036;9.094;2023-11-21T02:07:38;23.50;58.30
47174;DHT22;36730;49.036;9.094;2023-11-21T02:10:04;23.50;58.30
47174;DHT22;36730;49.036;9.094;2023-11-21T02:12:30;23.50;58.30
47174;DHT22;36730;49.036;9.094;2023-11-21T02:14:55;23.50;58.60
47174;DHT22;36730;49.036;9.094;2023-11-21T02:17:21;23.50;58.80
47174;DHT22;36730;49.036;9.094;2023-11-21T02:19:46;23.50;58.40
47174;DHT22;36730;49.036;9.094;2023-11-21T02:22:12;23.50;58.20
47174;DHT22;36730;49.036;9.094;2023-11-21T02:24:40;23.50;58.40
47174;DHT22;36730;49.036;9.094;2023-11-21T02:27:06;23.50;59.10
47174;DHT22;36730;49.036;9.094;2023-11-21T02:29:31;23.50;58.80
47174;DHT22;36730;49.036;9.094;2023-11-21T02:31:57;23.40;58.70
47174;DHT22;36730;49.036;9.094;2023-11-21T02:34:23;23.40;58.40
47174;DHT22;36730;49.036;9.094;2023-11-21T02:36:50;23.50;58.50
47174;DHT22;36730;49.036;9.094;2023-11-21T02:39:16;23.50;58.50
47174;DHT22;36730;49.036;9.094;2023-11-21T02:41:42;23.50;58.40
47174;DHT22;36730;49.036;9.094;2023-11-21T02:44:08;23.50;58.30
47174;DHT22;36730;49.036;9.094;2023-11-21T02:46:33;23.50;58.30
47174;DHT22;36730;49.036;9.094;2023-11-21T02:49:02;23.50;58.50
47174;DHT22;36730;49.036;9.094;2023-11-21T02:51:28;23.50;58.30
47174;DHT22;36730;49.036;9.094;2023-11-21T02:53:54;23.50;58.50
47174;DHT22;36730;49.036;9.094;2023-11-21T02:56:20;23.40;58.50
47174;DHT22;36730;49.036;9.094;2023-11-21T02:58:45;23.40;58.50
47174;DHT22;36730;49.036;9.094;2023-11-21T03:01:11;23.40;58.50
47174;DHT22;36730;49.036;9.094;2023-11-21T03:03:39;23.40;58.40
47174;DHT22;36730;49.036;9.094;2023-11-21T03:06:05;23.40;58.70
47174;DHT22;36730;49.036;9.094;2023-11-21T03:08:31;23.40;58.80
47174;DHT22;36730;49.036;9.094;2023-11-21T03:10:57;23.40;58.50
47174;DHT22;36730;49.036;9.094;2023-11-21T03:13:23;23.40;58.50
47174;DHT22;36730;49.036;9.094;2023-11-21T03:15:48;23.40;58.40
47174;DHT22;36730;49.036;9.094;2023-11-21T03:18:14;23.40;58.40
47174;DHT22;36730;49.036;9.094;2023-11-21T03:20:39;23.40;58.40
47174;DHT22;36730;49.036;9.094;2023-11-21T03:23:05;23.40;58.40
47174;DHT22;36730;49.036;9.094;2023-11-21T03:25:30;23.40;58.50
47174;DHT22;36730;49.036;9.094;2023-11-21T03:27:56;23.40;58.50
47174;DHT22;36730;49.036;9.094;2023-11-21T03:30:22;23.40;58.40
47174;DHT22;36730;49.036;9.094;2023-11-21T03:32:47;23.40;58.40
47174;DHT22;36730;49.036;9.094;2023-11-21T03:35:13;23.40;58.50
47174;DHT22;36730;49.036;9.094;2023-11-21T03:37:38;23.40;58.40
47174;DHT22;36730;49.036;9.094;2023-11-21T03:40:06;23.40;58.50
47174;DHT22;36730;49.036;9.094;2023-11-21T03:42:33;23.40;58.60
47174;DHT22;36730;49.036;9.094;2023-11-21T03:44:59;23.40;58.60
47174;DHT22;36730;49.036;9.094;2023-11-21T03:47:25;23.40;58.60
47174;DHT22;36730;49.036;9.094;2023-11-21T03:49:51;23.40;58.50
47174;DHT22;36730;49.036;9.094;2023-11-21T03:52:16;23.40;58.50
47174;DHT22;36730;49.036;9.094;2023-11-21T03:54:42;23.30;58.50
47174;DHT22;36730;49.036;9.094;2023-11-21T03:57:08;23.40;58.60
47174;DHT22;36730;49.036;9.094;2023-11-21T03:59:34;23.40;58.70
47174;DHT22;36730;49.036;9.094;2023-11-21T04:02:00;23.40;58.70
47174;DHT22;36730;49.036;9.094;2023-11-21T04:04:25;23.30;58.40
47174;DHT22;36730;49.036;9.094;2023-11-21T04:06:50;23.40;58.90
47174;DHT22;36730;49.036;9.094;2023-11-21T04:09:17;23.40;58.80
47174;DHT22;36730;49.036;9.094;2023-11-21T04:11:42;23.40;59.00
47174;DHT22;36730;49.036;9.094;2023-11-21T04:14:10;23.40;59.10
47174;DHT22;36730;49.036;9.094;2023-11-21T04:16:36;23.40;59.70
47174;DHT22;36730;49.036;9.094;2023-11-21T04:19:01;23.40;59.50
47174;DHT22;36730;49.036;9.094;2023-11-21T04:21:27;23.40;59.20
47174;DHT22;36730;49.036;9.094;2023-11-21T04:23:52;23.40;59.00
47174;DHT22;36730;49.036;9.094;2023-11-21T04:26:18;23.40;59.10
47174;DHT22;36730;49.036;9.094;2023-11-21T04:28:43;23.40;59.30
47174;DHT22;36730;49.036;9.094;2023-11-21T04:31:10;23.40;58.80
47174;DHT22;36730;49.036;9.094;2023-11-21T04:33:35;23.40;59.30
47174;DHT22;36730;49.036;9.094;2023-11-21T04:36:00;23.40;59.00
47174;DHT22;36730;49.036;9.094;2023-11-21T04:38:26;23.40;59.50
47174;DHT22;36730;49.036;9.094;2023-11-21T04:40:51;23.50;59.10
47174;DHT22;36730;49.036;9.094;2023-11-21T04:43:17;23.50;59.80
47174;DHT22;36730;49.036;9.094;2023-11-21T04:45:42;23.50;59.70
47174;DHT22;36730;49.036;9.094;2023-11-21T04:48:08;23.60;59.10
47174;DHT22;36730;49.036;9.094;2023-11-21T04:50:34;23.60;59.00
47174;DHT22;36730;49.036;9.094;2023-11-21T04:52:59;23.50;59.10
47174;DHT22;36730;49.036;9.094;2023-11-21T04:55:25;23.60;59.00
47174;DHT22;36730;49.036;9.094;2023-11-21T04:57:53;23.60;59.00
47174;DHT22;36730;49.036;9.094;2023-11-21T05:00:18;23.60;58.60
47174;DHT22;36730;49.036;9.094;2023-11-21T05:02:45;23.60;58.70
47174;DHT22;36730;49.036;9.094;2023-11-21T05:05:10;23.60;59.00
47174;DHT22;36730;49.036;9.094;2023-11-21T05:07:36;23.60;59.20
47174;DHT22;36730;49.036;9.094;2023-11-21T05:10:01;23.60;58.90
47174;DHT22;36730;49.036;9.094;2023-11-21T05:12:30;23.60;59.00
47174;DHT22;36730;49.036;9.094;2023-11-21T05:14:57;23.60;58.90
47174;DHT22;36730;49.036;9.094;2023-11-21T05:17:23;23.70;59.00
47174;DHT22;36730;49.036;9.094;2023-11-21T05:19:49;23.70;59.10
47174;DHT22;36730;49.036;9.094;2023-11-21T05:22:14;23.60;59.60
47174;DHT22;36730;49.036;9.094;2023-11-21T05:24:39;23.70;59.30
47174;DHT22;36730;49.036;9.094;2023-11-21T05:27:05;23.70;59.40
47174;DHT22;36730;49.036;9.094;2023-11-21T05:29:30;23.70;59.20
47174;DHT22;36730;49.036;9.094;2023-11-21T05:31:56;23.80;59.40
47174;DHT22;36730;49.036;9.094;2023-11-21T05:34:21;23.80;59.40
47174;DHT22;36730;49.036;9.094;2023-11-21T05:36:49;23.80;59.00
47174;DHT22;36730;49.036;9.094;2023-11-21T05:39:15;23.70;58.80
47174;DHT22;36730;49.036;9.094;2023-11-21T05:41:42;23.70;59.30
47174;DHT22;36730;49.036;9.094;2023-11-21T05:44:08;23.80;59.40
47174;DHT22;36730;49.036;9.094;2023-11-21T05:46:34;23.80;59.10
47174;DHT22;36730;49.036;9.094;2023-11-21T05:49:00;23.80;59.40
47174;DHT22;36730;49.036;9.094;2023-11-21T05:51:25;23.80;59.60
47174;DHT22;36730;49.036;9.094;2023-11-21T05:53:51;23.80;59.40
47174;DHT22;36730;49.036;9.094;2023-11-21T05:56:16;23.90;59.70
47174;DHT22;36730;49.036;9.094;2023-11-21T05:58:43;23.90;60.00
47174;DHT22;36730;49.036;9.094;2023-11-21T06:01:08;23.90;59.90
47174;DHT22;36730;49.036;9.094;2023-11-21T06:03:34;23.80;59.70
47174;DHT22;36730;49.036;9.094;2023-11-21T06:06:00;23.90;59.80
47174;DHT22;36730;49.036;9.094;2023-11-21T06:08:25;23.90;59.80
47174;DHT22;36730;49.036;9.094;2023-11-21T06:10:51;23.90;60.00
47174;DHT22;36730;49.036;9.094;2023-11-21T06:13:17;23.90;60.00
47174;DHT22;36730;49.036;9.094;2023-11-21T06:15:45;23.90;59.90
47174;DHT22;36730;49.036;9.094;2023-11-21T06:18:11;24.00;60.30
47174;DHT22;36730;49.036;9.094;2023-11-21T06:20:36;24.00;60.20
47174;DHT22;36730;49.036;9.094;2023-11-21T06:23:02;24.00;60.70
47174;DHT22;36730;49.036;9.094;2023-11-21T06:25:29;24.00;60.70
47174;DHT22;36730;49.036;9.094;2023-11-21T06:27:54;24.00;60.70
47174;DHT22;36730;49.036;9.094;2023-11-21T06:30:20;24.00;60.70
47174;DHT22;36730;49.036;9.094;2023-11-21T06:32:46;24.00;61.00
47174;DHT22;36730;49.036;9.094;2023-11-21T06:35:12;24.10;60.80
47174;DHT22;36730;49.036;9.094;2023-11-21T06:37:38;24.10;60.80
47174;DHT22;36730;49.036;9.094;2023-11-21T06:40:04;24.10;61.00
47174;DHT22;36730;49.036;9.094;2023-11-21T06:42:30;24.10;61.00
47174;DHT22;36730;49.036;9.094;2023-11-21T06:44:56;24.10;61.30
47174;DHT22;36730;49.036;9.094;2023-11-21T06:47:24;24.10;61.30
47174;DHT22;36730;49.036;9.094;2023-11-21T06:49:50;24.20;61.30
47174;DHT22;36730;49.036;9.094;2023-11-21T06:52:16;24.10;61.50
47174;DHT22;36730;49.036;9.094;2023-11-21T06:54:42;24.10;61.30
47174;DHT22;36730;49.036;9.094;2023-11-21T06:57:07;24.20;61.50
47174;DHT22;36730;49.036;9.094;2023-11-21T06:59:33;24.20;61.30
47174;DHT22;36730;49.036;9.094;2023-11-21T07:01:58;24.20;61.50
47174;DHT22;36730;49.036;9.094;2023-11-21T07:04:24;24.20;61.60
47174;DHT22;36730;49.036;9.094;2023-11-21T07:06:51;24.30;61.60
47174;DHT22;36730;49.036;9.094;2023-11-21T07:09:16;24.30;61.70
47174;DHT22;36730;49.036;9.094;2023-11-21T07:11:42;24.30;61.70
47174;DHT22;36730;49.036;9.094;2023-11-21T07:14:07;24.30;61.50
47174;DHT22;36730;49.036;9.094;2023-11-21T07:16:37;24.30;61.50
47174;DHT22;36730;49.036;9.094;2023-11-21T07:19:03;24.30;62.00
47174;DHT22;36730;49.036;9.094;2023-11-21T07:21:35;24.30;61.90
47174;DHT22;36730;49.036;9.094;2023-11-21T07:24:01;24.40;63.10
47174;DHT22;36730;49.036;9.094;2023-11-21T07:26:27;24.40;62.40
47174;DHT22;36730;49.036;9.094;2023-11-21T07:28:53;24.40;62.10
47174;DHT22;36730;49.036;9.094;2023-11-21T07:31:18;24.40;62.30
47174;DHT22;36730;49.036;9.094;2023-11-21T07:33:45;24.40;62.00
47174;DHT22;36730;49.036;9.094;2023-11-21T07:36:12;24.40;62.30
47174;DHT22;36730;49.036;9.094;2023-11-21T07:38:38;24.40;62.50
47174;DHT22;36730;49.036;9.094;2023-11-21T07:41:04;24.50;62.60
47174;DHT22;36730;49.036;9.094;2023-11-21T07:43:30;24.50;63.10
47174;DHT22;36730;49.036;9.094;2023-11-21T07:46:03;24.50;62.70
47174;DHT22;36730;49.036;9.094;2023-11-21T07:48:29;24.50;62.70
47174;DHT22;36730;49.036;9.094;2023-11-21T07:50:54;24.50;62.70
47174;DHT22;36730;49.036;9.094;2023-11-21T07:53:20;24.50;62.90
47174;DHT22;36730;49.036;9.094;2023-11-21T07:55:46;24.50;62.60
47174;DHT22;36730;49.036;9.094;2023-11-21T07:58:12;24.50;62.60
47174;DHT22;36730;49.036;9.094;2023-11-21T08:00:38;24.50;62.60
47174;DHT22;36730;49.036;9.094;2023-11-21T08:03:04;24.60;62.60
47174;DHT22;36730;49.036;9.094;2023-11-21T08:05:31;24.60;62.80
47174;DHT22;36730;49.036;9.094;2023-11-21T08:07:56;24.60;62.40
47174;DHT22;36730;49.036;9.094;2023-11-21T08:10:22;24.60;62.60
47174;DHT22;36730;49.036;9.094;2023-11-21T08:12:47;24.60;62.40
47174;DHT22;36730;49.036;9.094;2023-11-21T08:15:14;24.70;62.50
47174;DHT22;36730;49.036;9.094;2023-11-21T08:17:39;24.60;62.50
47174;DHT22;36730;49.036;9.094;2023-11-21T08:20:05;24.60;62.30
47174;DHT22;36730;49.036;9.094;2023-11-21T08:22:31;24.60;61.90
47174;DHT22;36730;49.036;9.094;2023-11-21T08:24:57;24.70;62.30
47174;DHT22;36730;49.036;9.094;2023-11-21T08:27:22;24.60;62.70
47174;DHT22;36730;49.036;9.094;2023-11-21T08:29:48;24.60;62.40
47174;DHT22;36730;49.036;9.094;2023-11-21T08:32:13;24.70;62.50
47174;DHT22;36730;49.036;9.094;2023-11-21T08:34:39;24.70;62.20
47174;DHT22;36730;49.036;9.094;2023-11-21T08:37:08;24.70;62.40
47174;DHT22;36730;49.036;9.094;2023-11-21T08:39:33;24.70;62.40
47174;DHT22;36730;49.036;9.094;2023-11-21T08:41:59;24.70;62.60
47174;DHT22;36730;49.036;9.094;2023-11-21T08:44:24;24.80;62.70
47174;DHT22;36730;49.036;9.094;2023-11-21T08:46:50;24.80;61.90
47174;DHT22;36730;49.036;9.094;2023-11-21T08:49:15;24.80;62.70
47174;DHT22;36730;49.036;9.094;2023-11-21T08:51:43;24.80;62.90
47174;DHT22;36730;49.036;9.094;2023-11-21T08:54:09;24.80;62.80
47174;DHT22;36730;49.036;9.094;2023-11-21T08:56:37;24.80;62.70
47174;DHT22;36730;49.036;9.094;2023-11-21T08:59:02;24.90;62.60
47174;DHT22;36730;49.036;9.094;2023-11-21T09:01:31;24.90;62.20
47174;DHT22;36730;49.036;9.094;2023-11-21T09:03:58;24.90;61.70
47174;DHT22;36730;49.036;9.094;2023-11-21T09:06:24;24.90;61.60
47174;DHT22;36730;49.036;9.094;2023-11-21T09:08:49;24.90;61.90
47174;DHT22;36730;49.036;9.094;2023-11-21T09:11:15;25.00;61.80
47174;DHT22;36730;49.036;9.094;2023-11-21T09:13:40;25.00;61.40
47174;DHT22;36730;49.036;9.094;2023-11-21T09:16:06;25.00;61.40
47174;DHT22;36730;49.036;9.094;2023-11-21T09:18:31;25.00;61.40
47174;DHT22;36730;49.036;9.094;2023-11-21T09:20:57;25.10;61.20
47174;DHT22;36730;49.036;9.094;2023-11-21T09:23:23;25.10;61.50
47174;DHT22;36730;49.036;9.094;2023-11-21T09:25:49;25.10;61.20
47174;DHT22;36730;49.036;9.094;2023-11-21T09:28:15;25.10;60.70
47174;DHT22;36730;49.036;9.094;2023-11-21T09:30:42;25.00;59.60
47174;DHT22;36730;49.036;9.094;2023-11-21T09:33:08;25.00;60.00
47174;DHT22;36730;49.036;9.094;2023-11-21T09:35:37;25.00;60.90
47174;DHT22;36730;49.036;9.094;2023-11-21T09:38:03;25.00;61.10
47174;DHT22;36730;49.036;9.094;2023-11-21T09:40:31;25.00;60.90
47174;DHT22;36730;49.036;9.094;2023-11-21T09:42:57;25.00;60.90
47174;DHT22;36730;49.036;9.094;2023-11-21T09:45:29;25.00;60.80
47174;DHT22;36730;49.036;9.094;2023-11-21T09:47:59;25.00;60.70
47174;DHT22;36730;49.036;9.094;2023-11-21T09:50:24;25.00;60.70
47174;DHT22;36730;49.036;9.094;2023-11-21T09:55:17;25.00;60.90
47174;DHT22;36730;49.036;9.094;2023-11-21T09:57:45;25.00;61.00
47174;DHT22;36730;49.036;9.094;2023-11-21T10:00:11;25.10;60.80
47174;DHT22;36730;49.036;9.094;2023-11-21T10:02:37;25.00;60.80
47174;DHT22;36730;49.036;9.094;2023-11-21T10:05:03;25.10;60.80
47174;DHT22;36730;49.036;9.094;2023-11-21T10:07:29;25.10;61.00
47174;DHT22;36730;49.036;9.094;2023-11-21T10:09:56;25.10;61.00
47174;DHT22;36730;49.036;9.094;2023-11-21T10:12:22;25.10;60.90
47174;DHT22;36730;49.036;9.094;2023-11-21T10:14:49;25.10;60.90
47174;DHT22;36730;49.036;9.094;2023-11-21T10:17:16;25.10;61.00
47174;DHT22;36730;49.036;9.094;2023-11-21T10:19:44;25.10;60.90
47174;DHT22;36730;49.036;9.094;2023-11-21T10:22:12;25.10;61.00
47174;DHT22;36730;49.036;9.094;2023-11-21T10:24:38;25.10;60.80
47174;DHT22;36730;49.036;9.094;2023-11-21T10:27:04;25.10;61.00
47174;DHT22;36730;49.036;9.094;2023-11-21T10:29:29;25.20;60.80
47174;DHT22;36730;49.036;9.094;2023-11-21T10:31:55;25.20;60.80
47174;DHT22;36730;49.036;9.094;2023-11-21T10:34:23;25.10;60.70
47174;DHT22;36730;49.036;9.094;2023-11-21T10:36:49;25.10;60.80
47174;DHT22;36730;49.036;9.094;2023-11-21T10:41:54;25.10;61.00
47174;DHT22;36730;49.036;9.094;2023-11-21T10:44:20;25.20;60.60
47174;DHT22;36730;49.036;9.094;2023-11-21T10:46:50;25.20;61.00
47174;DHT22;36730;49.036;9.094;2023-11-21T10:49:25;25.20;60.60
47174;DHT22;36730;49.036;9.094;2023-11-21T10:51:52;25.20;60.40
47174;DHT22;36730;49.036;9.094;2023-11-21T10:54:19;25.20;60.70
47174;DHT22;36730;49.036;9.094;2023-11-21T10:56:46;25.20;60.60
47174;DHT22;36730;49.036;9.094;2023-11-21T10:59:12;25.30;60.70
47174;DHT22;36730;49.036;9.094;2023-11-21T11:01:44;25.20;60.90
47174;DHT22;36730;49.036;9.094;2023-11-21T11:04:10;25.20;60.60
47174;DHT22;36730;49.036;9.094;2023-11-21T11:06:44;25.30;60.70
47174;DHT22;36730;49.036;9.094;2023-11-21T11:09:13;25.30;61.20
47174;DHT22;36730;49.036;9.094;2023-11-21T11:11:39;25.30;60.80
47174;DHT22;36730;49.036;9.094;2023-11-21T11:14:08;25.30;60.70
47174;DHT22;36730;49.036;9.094;2023-11-21T11:16:34;25.30;60.70
47174;DHT22;36730;49.036;9.094;2023-11-21T11:18:59;25.30;60.70
47174;DHT22;36730;49.036;9.094;2023-11-21T11:21:28;25.30;60.80
47174;DHT22;36730;49.036;9.094;2023-11-21T11:27:23;25.30;60.70
47174;DHT22;36730;49.036;9.094;2023-11-21T11:37:01;25.40;60.80
47174;DHT22;36730;49.036;9.094;2023-11-21T11:41:56;25.40;60.90
47174;DHT22;36730;49.036;9.094;2023-11-21T11:47:23;25.40;61.00
47174;DHT22;36730;49.036;9.094;2023-11-21T11:52:51;25.40;61.20
47174;DHT22;36730;49.036;9.094;2023-11-21T11:55:18;25.40;61.10
47174;DHT22;36730;49.036;9.094;2023-11-21T11:57:45;25.40;61.20
47174;DHT22;36730;49.036;9.094;2023-11-21T12:02:51;25.40;61.20
47174;DHT22;36730;49.036;9.094;2023-11-21T12:05:17;25.40;61.30
47174;DHT22;36730;49.036;9.094;2023-11-21T12:07:44;25.40;61.50
47174;DHT22;36730;49.036;9.094;2023-11-21T12:10:12;25.40;61.70
47174;DHT22;36730;49.036;9.094;2023-11-21T12:12:37;25.50;61.70
47174;DHT22;36730;49.036;9.094;2023-11-21T12:15:04;25.50;61.80
47174;DHT22;36730;49.036;9.094;2023-11-21T12:17:30;25.50;61.70
47174;DHT22;36730;49.036;9.094;2023-11-21T12:20:01;25.50;61.70
47174;DHT22;36730;49.036;9.094;2023-11-21T12:22:28;25.50;61.60
47174;DHT22;36730;49.036;9.094;2023-11-21T12:24:54;25.50;62.40
47174;DHT22;36730;49.036;9.094;2023-11-21T12:27:20;25.50;61.80
47174;DHT22;36730;49.036;9.094;2023-11-21T12:29:46;25.50;61.80
47174;DHT22;36730;49.036;9.094;2023-11-21T12:32:11;25.50;62.00
47174;DHT22;36730;49.036;9.094;2023-11-21T12:34:37;25.50;61.80
47174;DHT22;36730;49.036;9.094;2023-11-21T12:37:04;25.50;61.80
47174;DHT22;36730;49.036;9.094;2023-11-21T12:39:30;25.50;62.80
47174;DHT22;36730;49.036;9.094;2023-11-21T12:41:55;25.50;62.30
47174;DHT22;36730;49.036;9.094;2023-11-21T12:44:21;25.50;62.30
47174;DHT22;36730;49.036;9.094;2023-11-21T12:46:49;25.50;63.00
47174;DHT22;36730;49.036;9.094;2023-11-21T12:49:15;25.50;62.60
47174;DHT22;36730;49.036;9.094;2023-11-21T12:51:43;25.50;62.60
47174;DHT22;36730;49.036;9.094;2023-11-21T12:54:10;25.60;62.90
47174;DHT22;36730;49.036;9.094;2023-11-21T12:56:38;25.50;62.60
47174;DHT22;36730;49.036;9.094;2023-11-21T12:59:04;25.50;62.50
47174;DHT22;36730;49.036;9.094;2023-11-21T13:01:30;25.50;62.90
47174;DHT22;36730;49.036;9.094;2023-11-21T13:03:59;25.50;62.80
47174;DHT22;36730;49.036;9.094;2023-11-21T13:06:25;25.50;62.70
47174;DHT22;36730;49.036;9.094;2023-11-21T13:08:51;25.50;63.00
47174;DHT22;36730;49.036;9.094;2023-11-21T13:11:17;25.50;63.20
47174;DHT22;36730;49.036;9.094;2023-11-21T13:13:43;25.50;63.10
47174;DHT22;36730;49.036;9.094;2023-11-21T13:16:11;25.50;63.40
47174;DHT22;36730;49.036;9.094;2023-11-21T13:18:38;25.50;63.10
47174;DHT22;36730;49.036;9.094;2023-11-21T13:21:05;25.50;63.20
47174;DHT22;36730;49.036;9.094;2023-11-21T13:23:42;25.60;63.50
47174;DHT22;36730;49.036;9.094;2023-11-21T13:26:08;25.60;63.80
47174;DHT22;36730;49.036;9.094;2023-11-21T13:28:34;25.60;63.50
47174;DHT22;36730;49.036;9.094;2023-11-21T13:31:00;25.60;63.60
47174;DHT22;36730;49.036;9.094;2023-11-21T13:33:35;25.60;63.60
47174;DHT22;36730;49.036;9.094;2023-11-21T13:36:04;25.60;63.50
47174;DHT22;36730;49.036;9.094;2023-11-21T13:38:33;25.60;63.30
47174;DHT22;36730;49.036;9.094;2023-11-21T13:40:59;25.60;63.30
47174;DHT22;36730;49.036;9.094;2023-11-21T13:43:25;25.60;63.40
47174;DHT22;36730;49.036;9.094;2023-11-21T13:45:51;25.60;63.20
47174;DHT22;36730;49.036;9.094;2023-11-21T13:48:25;25.60;63.30
47174;DHT22;36730;49.036;9.094;2023-11-21T13:50:56;25.60;63.20
47174;DHT22;36730;49.036;9.094;2023-11-21T13:53:33;25.60;63.20
47174;DHT22;36730;49.036;9.094;2023-11-21T13:56:01;25.50;62.90
47174;DHT22;36730;49.036;9.094;2023-11-21T13:58:27;25.50;63.20
47174;DHT22;36730;49.036;9.094;2023-11-21T14:01:12;25.60;63.10
47174;DHT22;36730;49.036;9.094;2023-11-21T14:04:04;25.60;63.00
47174;DHT22;36730;49.036;9.094;2023-11-21T14:06:45;25.60;62.90
47174;DHT22;36730;49.036;9.094;2023-11-21T14:09:15;25.50;62.70
47174;DHT22;36730;49.036;9.094;2023-11-21T14:11:54;25.50;62.70
47174;DHT22;36730;49.036;9.094;2023-11-21T14:14:22;25.50;62.60
47174;DHT22;36730;49.036;9.094;2023-11-21T14:16:47;25.50;62.70
47174;DHT22;36730;49.036;9.094;2023-11-21T14:19:13;25.50;62.60
47174;DHT22;36730;49.036;9.094;2023-11-21T14:21:45;25.50;62.60
47174;DHT22;36730;49.036;9.094;2023-11-21T14:24:12;25.50;62.60
47174;DHT22;36730;49.036;9.094;2023-11-21T14:26:44;25.50;62.70
47174;DHT22;36730;49.036;9.094;2023-11-21T14:29:11;25.60;62.60
47174;DHT22;36730;49.036;9.094;2023-11-21T14:31:40;25.50;62.40
47174;DHT22;36730;49.036;9.094;2023-11-21T14:34:06;25.60;62.50
47174;DHT22;36730;49.036;9.094;2023-11-21T14:36:32;25.60;62.40
47174;DHT22;36730;49.036;9.094;2023-11-21T14:38:58;25.60;62.50
47174;DHT22;36730;49.036;9.094;2023-11-21T14:41:23;25.60;62.50
47174;DHT22;36730;49.036;9.094;2023-11-21T14:43:50;25.50;62.50
47174;DHT22;36730;49.036;9.094;2023-11-21T14:46:16;25.50;62.20
47174;DHT22;36730;49.036;9.094;2023-11-21T14:48:44;25.50;62.10
47174;DHT22;36730;49.036;9.094;2023-11-21T14:51:22;25.50;62.10
47174;DHT22;36730;49.036;9.094;2023-11-21T14:53:57;25.50;61.90
47174;DHT22;36730;49.036;9.094;2023-11-21T14:56:31;25.50;62.10
47174;DHT22;36730;49.036;9.094;2023-11-21T14:58:58;25.50;61.90
47174;DHT22;36730;49.036;9.094;2023-11-21T15:01:30;25.50;62.10
47174;DHT22;36730;49.036;9.094;2023-11-21T15:04:09;25.50;61.90
47174;DHT22;36730;49.036;9.094;2023-11-21T15:06:46;25.50;62.10
47174;DHT22;36730;49.036;9.094;2023-11-21T15:09:13;25.50;61.90
47174;DHT22;36730;49.036;9.094;2023-11-21T15:11:38;25.50;62.00
47174;DHT22;36730;49.036;9.094;2023-11-21T15:14:04;25.50;61.80
47174;DHT22;36730;49.036;9.094;2023-11-21T15:16:32;25.50;61.90
47174;DHT22;36730;49.036;9.094;2023-11-21T15:18:58;25.50;61.90
47174;DHT22;36730;49.036;9.094;2023-11-21T15:21:24;25.40;61.60
47174;DHT22;36730;49.036;9.094;2023-11-21T15:23:50;25.40;61.80
47174;DHT22;36730;49.036;9.094;2023-11-21T15:26:16;25.40;62.10
47174;DHT22;36730;49.036;9.094;2023-11-21T15:28:41;25.40;61.80
47174;DHT22;36730;49.036;9.094;2023-11-21T15:31:07;25.40;62.00
47174;DHT22;36730;49.036;9.094;2023-11-21T15:33:33;25.40;61.40
47174;DHT22;36730;49.036;9.094;2023-11-21T15:36:01;25.40;61.40
47174;DHT22;36730;49.036;9.094;2023-11-21T15:38:27;25.40;61.40
47174;DHT22;36730;49.036;9.094;2023-11-21T15:40:53;25.40;61.60
47174;DHT22;36730;49.036;9.094;2023-11-21T15:43:19;25.30;61.40
47174;DHT22;36730;49.036;9.094;2023-11-21T15:45:45;25.30;61.10
47174;DHT22;36730;49.036;9.094;2023-11-21T15:48:10;25.40;60.60
47174;DHT22;36730;49.036;9.094;2023-11-21T15:50:36;25.30;60.50
47174;DHT22;36730;49.036;9.094;2023-11-21T15:53:02;25.30;61.00